Terminal Aerodrome Forecast
Issued by NWS

Current Version | Previous Version | Text Only | Print | Product List | Glossary On
Versions: 1 2 3 4 5 6 7 8 9 10 11 12 13 14 15 16 17 18 19 20
000
FTUS43 KICT 240837 AAA
TAFSLN
TAF AMD
KSLN 240837Z 2409/2506 VRB05KT P6SM SCT008 BKN015
      TEMPO 2409/2413 4SM BR BKN008
     FM241800 15012KT P6SM VCTS SCT020 BKN035CB=

USA.gov is the U.S. government's official web portal to all federal, state and local government web resources and services.